Time,TemperatureF,DewpointF,PressureIn,WindDirection,WindDirectionDegrees,WindSpeedMPH,WindSpeedGustMPH,Humidity,HourlyPrecipIn,Conditions,Clouds,dailyrainin,SoftwareType,DateUTC
2013-01-19 00:00:00,35.0,35.0,30.36,ENE,60,5.0,7.0,100,-99.99,,,-99.99,,2013-01-19 08:00:00,
2013-01-19 00:22:00,35.0,35.0,30.36,ENE,60,5.0,7.0,100,-99.99,,,-99.99,,2013-01-19 08:22:00,
2013-01-19 00:32:00,35.0,35.0,30.36,ENE,60,5.0,7.0,100,-99.99,,,-99.99,,2013-01-19 08:32:00,
2013-01-19 00:42:00,35.0,35.0,30.36,ENE,60,5.0,7.0,100,-99.99,,,-99.99,,2013-01-19 08:42:00,
2013-01-19 00:52:00,35.0,35.0,30.36,ENE,60,5.0,7.0,100,-99.99,,,-99.99,,2013-01-19 08:52:00,
2013-01-19 01:00:00,35.0,35.0,30.35,ENE,60,3.0,6.0,100,-99.99,,,-99.99,,2013-01-19 09:00:00,
2013-01-19 01:22:00,35.0,35.0,30.35,ENE,60,3.0,6.0,100,-99.99,,,-99.99,,2013-01-19 09:22:00,
2013-01-19 01:32:00,35.0,35.0,30.35,ENE,60,3.0,6.0,100,-99.99,,,-99.99,,2013-01-19 09:32:00,
2013-01-19 01:42:00,35.0,35.0,30.35,ENE,60,3.0,6.0,100,-99.99,,,-99.99,,2013-01-19 09:42:00,
2013-01-19 01:52:00,35.0,35.0,30.35,ENE,60,3.0,6.0,100,-99.99,,,-99.99,,2013-01-19 09:52:00,
2013-01-19 02:00:00,35.0,35.0,30.36,NE,50,6.0,9.0,100,-99.99,,,-99.99,,2013-01-19 10:00:00,
2013-01-19 02:22:00,35.0,35.0,30.36,NE,50,6.0,9.0,100,-99.99,,,-99.99,,2013-01-19 10:22:00,
2013-01-19 02:32:00,35.0,35.0,30.36,NE,50,6.0,9.0,100,-99.99,,,-99.99,,2013-01-19 10:32:00,
2013-01-19 02:42:00,35.0,35.0,30.36,NE,50,6.0,9.0,100,-99.99,,,-99.99,,2013-01-19 10:42:00,
2013-01-19 02:52:00,35.0,35.0,30.36,NE,50,6.0,9.0,100,-99.99,,,-99.99,,2013-01-19 10:52:00,
2013-01-19 04:00:00,36.0,36.0,30.36,NNE,20,8.0,9.0,100,-99.99,,,-99.99,,2013-01-19 12:00:00,
2013-01-19 04:52:00,36.0,36.0,30.36,NNE,20,8.0,9.0,100,-99.99,,,-99.99,,2013-01-19 12:52:00,
2013-01-19 05:00:00,36.0,36.0,30.36,NNE,20,9.0,10.0,100,-99.99,,,-99.99,,2013-01-19 13:00:00,
2013-01-19 05:22:00,36.0,36.0,30.36,NNE,20,9.0,10.0,100,-99.99,,,-99.99,,2013-01-19 13:22:00,
2013-01-19 05:32:00,36.0,36.0,30.36,NNE,20,9.0,10.0,100,-99.99,,,-99.99,,2013-01-19 13:32:00,
2013-01-19 05:42:00,36.0,36.0,30.36,NNE,20,9.0,10.0,100,-99.99,,,-99.99,,2013-01-19 13:42:00,
2013-01-19 05:52:00,36.0,36.0,30.36,NNE,20,9.0,10.0,100,-99.99,,,-99.99,,2013-01-19 13:52:00,
2013-01-19 06:00:00,35.0,35.0,30.37,NE,40,8.0,10.0,100,-99.99,,,-99.99,,2013-01-19 14:00:00,
2013-01-19 06:32:00,35.0,35.0,30.37,NE,40,8.0,10.0,100,-99.99,,,-99.99,,2013-01-19 14:32:00,
2013-01-19 06:42:00,35.0,35.0,30.37,NE,40,8.0,10.0,100,-99.99,,,-99.99,,2013-01-19 14:42:00,
2013-01-19 06:52:00,35.0,35.0,30.37,NE,40,8.0,10.0,100,-99.99,,,-99.99,,2013-01-19 14:52:00,
2013-01-19 07:00:00,36.0,36.0,30.36,NNE,20,9.0,11.0,100,-99.99,,,-99.99,,2013-01-19 15:00:00,
2013-01-19 07:22:00,36.0,36.0,30.36,NNE,20,9.0,11.0,100,-99.99,,,-99.99,,2013-01-19 15:22:00,
2013-01-19 07:32:00,36.0,36.0,30.36,NNE,20,9.0,11.0,100,-99.99,,,-99.99,,2013-01-19 15:32:00,
2013-01-19 07:42:00,36.0,36.0,30.36,NNE,20,9.0,11.0,100,-99.99,,,-99.99,,2013-01-19 15:42:00,
2013-01-19 07:52:00,36.0,36.0,30.36,NNE,20,9.0,11.0,100,-99.99,,,-99.99,,2013-01-19 15:52:00,
2013-01-19 08:00:00,35.0,35.0,30.37,NNE,30,9.0,11.0,100,-99.99,,,-99.99,,2013-01-19 16:00:00,
2013-01-19 08:22:00,35.0,35.0,30.37,NNE,30,9.0,11.0,100,-99.99,,,-99.99,,2013-01-19 16:22:00,
2013-01-19 08:32:00,35.0,35.0,30.37,NNE,30,9.0,11.0,100,-99.99,,,-99.99,,2013-01-19 16:32:00,
2013-01-19 08:42:00,35.0,35.0,30.37,NNE,30,9.0,11.0,100,-99.99,,,-99.99,,2013-01-19 16:42:00,
2013-01-19 08:52:00,35.0,35.0,30.37,NNE,30,9.0,11.0,100,-99.99,,,-99.99,,2013-01-19 16:52:00,
2013-01-19 09:00:00,35.0,35.0,30.39,North,10,9.0,11.0,100,-99.99,,,-99.99,,2013-01-19 17:00:00,
2013-01-19 09:32:00,35.0,35.0,30.39,North,10,9.0,11.0,100,-99.99,,,-99.99,,2013-01-19 17:32:00,
2013-01-19 09:42:00,35.0,35.0,30.39,North,10,9.0,11.0,100,-99.99,,,-99.99,,2013-01-19 17:42:00,
2013-01-19 09:53:00,35.0,35.0,30.39,North,10,9.0,11.0,100,-99.99,,,-99.99,,2013-01-19 17:53:00,
2013-01-19 10:32:00,35.0,35.0,30.39,North,10,10.0,13.0,100,-99.99,,,-99.99,,2013-01-19 18:32:00,
2013-01-19 10:52:00,35.0,35.0,30.39,North,10,10.0,13.0,100,-99.99,,,-99.99,,2013-01-19 18:52:00,
2013-01-19 11:21:00,35.0,35.0,30.39,NNE,30,9.0,10.0,100,-99.99,,,-99.99,,2013-01-19 19:21:00,
2013-01-19 11:32:00,35.0,35.0,30.39,NNE,30,9.0,10.0,100,-99.99,,,-99.99,,2013-01-19 19:32:00,
2013-01-19 11:42:00,35.0,35.0,30.39,NNE,30,9.0,10.0,100,-99.99,,,-99.99,,2013-01-19 19:42:00,
2013-01-19 11:52:00,35.0,35.0,30.39,NNE,30,9.0,10.0,100,-99.99,,,-99.99,,2013-01-19 19:52:00,
2013-01-19 12:22:00,35.0,35.0,30.37,NNE,20,8.0,9.0,100,-99.99,,,-99.99,,2013-01-19 20:22:00,
2013-01-19 12:32:00,35.0,35.0,30.37,NNE,20,8.0,9.0,100,-99.99,,,-99.99,,2013-01-19 20:32:00,
2013-01-19 12:42:00,35.0,35.0,30.37,NNE,20,8.0,9.0,100,-99.99,,,-99.99,,2013-01-19 20:42:00,
2013-01-19 13:32:00,36.0,36.0,30.36,North,10,11.0,13.0,100,-99.99,,,-99.99,,2013-01-19 21:32:00,
2013-01-19 13:52:00,36.0,36.0,30.36,North,10,11.0,13.0,100,-99.99,,,-99.99,,2013-01-19 21:52:00,
2013-01-19 14:22:00,36.0,36.0,30.35,North,360,13.0,14.0,100,-99.99,,,-99.99,,2013-01-19 22:22:00,
2013-01-19 14:52:00,36.0,36.0,30.35,North,360,13.0,14.0,100,-99.99,,,-99.99,,2013-01-19 22:52:00,
2013-01-19 15:53:00,35.0,35.0,30.35,North,10,10.0,13.0,100,-99.99,,,-99.99,,2013-01-19 23:53:00,
2013-01-19 16:22:00,35.0,35.0,30.35,NNE,30,8.0,10.0,100,-99.99,,,-99.99,,2013-01-20 00:22:00,
2013-01-19 16:32:00,35.0,35.0,30.35,NNE,30,8.0,10.0,100,-99.99,,,-99.99,,2013-01-20 00:32:00,
2013-01-19 16:42:00,35.0,35.0,30.35,NNE,30,8.0,10.0,100,-99.99,,,-99.99,,2013-01-20 00:42:00,
2013-01-19 16:52:00,35.0,35.0,30.35,NNE,30,8.0,10.0,100,-99.99,,,-99.99,,2013-01-20 00:52:00,
2013-01-19 17:00:00,36.0,36.0,30.36,NNE,20,10.0,13.0,100,-99.99,,,-99.99,,2013-01-20 01:00:00,
2013-01-19 17:22:00,36.0,36.0,30.36,NNE,20,10.0,13.0,100,-99.99,,,-99.99,,2013-01-20 01:22:00,
2013-01-19 17:32:00,36.0,36.0,30.36,NNE,20,10.0,13.0,100,-99.99,,,-99.99,,2013-01-20 01:32:00,
2013-01-19 17:52:00,36.0,36.0,30.36,NNE,20,10.0,13.0,100,-99.99,,,-99.99,,2013-01-20 01:52:00,
2013-01-19 18:00:00,36.0,36.0,30.36,NE,50,6.0,7.0,100,-99.99,,,-99.99,,2013-01-20 02:00:00,
2013-01-19 18:22:00,36.0,36.0,30.36,NE,50,6.0,7.0,100,-99.99,,,-99.99,,2013-01-20 02:22:00,
2013-01-19 18:53:00,36.0,36.0,30.36,NE,50,6.0,7.0,100,-99.99,,,-99.99,,2013-01-20 02:53:00,
2013-01-19 19:22:00,36.0,36.0,30.36,ENE,60,8.0,9.0,100,-99.99,,,-99.99,,2013-01-20 03:22:00,
2013-01-19 19:32:00,36.0,36.0,30.36,ENE,60,8.0,9.0,100,-99.99,,,-99.99,,2013-01-20 03:32:00,
2013-01-19 19:42:00,36.0,36.0,30.36,ENE,60,8.0,9.0,100,-99.99,,,-99.99,,2013-01-20 03:42:00,
2013-01-19 19:52:00,36.0,36.0,30.36,ENE,60,8.0,9.0,100,-99.99,,,-99.99,,2013-01-20 03:52:00,
2013-01-19 20:00:00,38.0,38.0,30.38,NNE,20,7.0,8.0,100,-99.99,,,-99.99,,2013-01-20 04:00:00,
2013-01-19 20:22:00,38.0,38.0,30.38,NNE,20,7.0,8.0,100,-99.99,,,-99.99,,2013-01-20 04:22:00,
2013-01-19 20:32:00,38.0,38.0,30.38,NNE,20,7.0,8.0,100,-99.99,,,-99.99,,2013-01-20 04:32:00,
2013-01-19 20:42:00,38.0,38.0,30.38,NNE,20,7.0,8.0,100,-99.99,,,-99.99,,2013-01-20 04:42:00,
2013-01-19 20:52:00,38.0,38.0,30.38,NNE,20,7.0,8.0,100,-99.99,,,-99.99,,2013-01-20 04:52:00,
2013-01-19 21:00:00,38.0,38.0,30.37,North,10,8.0,10.0,100,-99.99,,,-99.99,,2013-01-20 05:00:00,
2013-01-19 21:22:00,38.0,38.0,30.37,North,10,8.0,10.0,100,-99.99,,,-99.99,,2013-01-20 05:22:00,
2013-01-19 21:32:00,38.0,38.0,30.37,North,10,8.0,10.0,100,-99.99,,,-99.99,,2013-01-20 05:32:00,
2013-01-19 21:42:00,38.0,38.0,30.37,North,10,8.0,10.0,100,-99.99,,,-99.99,,2013-01-20 05:42:00,
2013-01-19 21:52:00,38.0,38.0,30.37,North,10,8.0,10.0,100,-99.99,,,-99.99,,2013-01-20 05:52:00,
2013-01-19 22:00:00,38.0,38.0,30.38,NNE,20,10.0,11.0,100,-99.99,,,-99.99,,2013-01-20 06:00:00,
2013-01-19 22:22:00,38.0,38.0,30.38,NNE,20,10.0,11.0,100,-99.99,,,-99.99,,2013-01-20 06:22:00,
2013-01-19 22:32:00,38.0,38.0,30.38,NNE,20,10.0,11.0,100,-99.99,,,-99.99,,2013-01-20 06:32:00,
2013-01-19 22:42:00,38.0,38.0,30.38,NNE,20,10.0,11.0,100,-99.99,,,-99.99,,2013-01-20 06:42:00,
2013-01-19 22:52:00,38.0,38.0,30.38,NNE,20,10.0,11.0,100,-99.99,,,-99.99,,2013-01-20 06:52:00,
2013-01-19 23:00:00,38.0,38.0,30.38,North,360,6.0,7.0,100,-99.99,,,-99.99,,2013-01-20 07:00:00,
2013-01-19 23:22:00,38.0,38.0,30.38,North,360,6.0,7.0,100,-99.99,,,-99.99,,2013-01-20 07:22:00,
2013-01-19 23:32:00,38.0,38.0,30.38,North,360,6.0,7.0,100,-99.99,,,-99.99,,2013-01-20 07:32:00,
2013-01-19 23:42:00,38.0,38.0,30.38,North,360,6.0,7.0,100,-99.99,,,-99.99,,2013-01-20 07:42:00,
2013-01-19 23:52:00,38.0,38.0,30.38,North,360,6.0,7.0,100,-99.99,,,-99.99,,2013-01-20 07:52:00,